Borodino, Louisiana
Current Conditions -  °F | °C
As of 5:53 PM on Monday 24 Nov 2014 (Local Time) from KESF Reporting Station
Clear Clear  
Wind Chill: 50°   Ceiling: Unl
Heat Index: 50°   Visibility: 10mi
Dew Point: 40°   Wind: 3mph
Humidity: 68%   Direction: 330°NNW
Pressure: 30.03"   Gusts: NA
Location:  31.0386°N, 91.9871°W
Report Text: KESF 242353Z AUTO 33003KT 10SM CLR 10/04 A3003 RMK AO2 SLP167 T01000044 10178 20094 51015
Loading
Personal Weather Stations






























Interactive Weather Map New forecast layout! Learn more

10-Day Weather Forecast

Advertisements
Track Severe Weather on mobile